Time;durP1;ratioP1;P1;durP2;ratioP2;P2;SDS_P1;SDS_P2;PMS_P1;PMS_P2;Temp;Humidity;BMP_temperature;BMP_pressure;BME280_temperature;BME280_humidity;BME280_pressure;Samples;Min_cycle;Max_cycle;Signal;HPM_P1;HPM_P2
2023/12/05 00:02:17;;;;;;;;;1.00;1.00;;;;;9.98;73.92;99352.97;4939849;28;75569;-69
2023/12/05 00:04:42;;;;;;;;;2.75;0.50;;;;;9.97;73.71;99353.03;4944416;28;45351;-69
2023/12/05 00:07:08;;;;;;;;;0.75;0.75;;;;;9.98;73.69;99359.97;4939646;28;61789;-69
2023/12/05 00:09:33;;;;;;;;;0.50;0.00;;;;;9.95;73.38;99355.75;4940384;28;45354;-68
2023/12/05 00:11:58;;;;;;;;;1.50;0.50;;;;;9.95;73.39;99362.72;4940835;28;73027;-68
2023/12/05 00:14:24;;;;;;;;;2.25;0.25;;;;;9.99;73.27;99369.53;4960367;28;45359;-69
2023/12/05 00:16:49;;;;;;;;;0.75;0.75;;;;;10.01;73.18;99362.47;4953353;28;70136;-68
2023/12/05 00:19:14;;;;;;;;;0.00;0.00;;;;;10.01;72.67;99360.69;4939386;28;65341;-69
2023/12/05 00:21:40;;;;;;;;;1.00;0.25;;;;;10.01;72.65;99373.75;4935943;28;45368;-68
2023/12/05 00:24:05;;;;;;;;;3.75;0.75;;;;;10.00;72.64;99361.59;4937222;28;69238;-69
2023/12/05 00:26:32;;;;;;;;;2.75;0.00;;;;;9.98;72.54;99358.19;4938798;28;51888;-69
2023/12/05 00:28:58;;;;;;;;;0.75;0.00;;;;;10.00;72.75;99358.13;4953694;28;45535;-69
2023/12/05 00:31:23;;;;;;;;;0.00;0.00;;;;;9.97;72.71;99359.13;4937854;28;74466;-68
2023/12/05 00:33:48;;;;;;;;;2.75;0.00;;;;;9.97;72.20;99356.53;4926169;28;45542;-69
2023/12/05 00:36:14;;;;;;;;;0.75;0.00;;;;;9.93;72.37;99357.56;4942662;28;45518;-69
2023/12/05 00:38:39;;;;;;;;;0.25;0.00;;;;;9.95;72.29;99362.72;4943177;28;56143;-69
2023/12/05 00:41:06;;;;;;;;;0.00;0.00;;;;;9.93;72.35;99359.34;4946716;28;63074;-69
2023/12/05 00:43:31;;;;;;;;;1.00;1.00;;;;;9.93;72.25;99365.41;4942885;28;45196;-69
2023/12/05 00:45:57;;;;;;;;;1.00;1.00;;;;;9.91;71.99;99366.41;4945190;28;45569;-68
2023/12/05 00:48:22;;;;;;;;;0.00;0.00;;;;;9.89;71.84;99364.69;4952040;28;45465;-69
2023/12/05 00:50:48;;;;;;;;;0.00;0.00;;;;;9.91;71.84;99363.78;4942162;28;45399;-69
2023/12/05 00:53:14;;;;;;;;;2.00;0.00;;;;;9.94;71.61;99372.34;4941525;28;72925;-69
2023/12/05 00:55:39;;;;;;;;;0.50;0.50;;;;;9.94;71.46;99368.88;4942367;28;45566;-69
2023/12/05 00:58:04;;;;;;;;;0.00;0.00;;;;;9.93;71.20;99370.63;4943564;28;45426;-69
2023/12/05 01:00:30;;;;;;;;;1.00;0.00;;;;;9.92;71.31;99371.56;4935700;28;75704;-69
2023/12/05 01:02:55;;;;;;;;;0.00;0.00;;;;;9.97;71.12;99379.19;4943823;28;61023;-69
2023/12/05 01:05:20;;;;;;;;;0.25;0.25;;;;;9.94;71.13;99376.72;4943080;28;45996;-69
2023/12/05 01:07:46;;;;;;;;;0.00;0.00;;;;;9.95;71.08;99375.78;4963990;28;51656;-69
2023/12/05 01:10:12;;;;;;;;;1.00;0.00;;;;;9.93;70.81;99370.63;4945101;28;45467;-69
2023/12/05 01:12:37;;;;;;;;;1.00;0.00;;;;;9.92;70.59;99375.97;4942013;28;45386;-68
2023/12/05 01:15:04;;;;;;;;;1.00;0.00;;;;;9.91;70.58;99377.69;4924342;28;45513;-69
2023/12/05 01:17:29;;;;;;;;;1.75;0.00;;;;;9.93;70.70;99375.84;4943143;28;45446;-66
2023/12/05 01:19:56;;;;;;;;;1.25;0.00;;;;;9.94;70.59;99371.50;4941262;28;46596;-68
2023/12/05 01:22:21;;;;;;;;;1.00;0.00;;;;;9.94;70.58;99388.03;4937046;28;69131;-69
2023/12/05 01:24:56;;;;;;;;;1.00;1.00;;;;;9.96;70.31;99380.13;4940312;28;45439;-69
2023/12/05 01:27:21;;;;;;;;;1.25;0.00;;;;;9.97;70.03;99384.41;4921704;28;73517;-68
2023/12/05 01:29:46;;;;;;;;;0.00;0.00;;;;;9.95;70.23;99386.25;4926090;28;46237;-69
2023/12/05 01:32:13;;;;;;;;;0.00;0.00;;;;;9.96;69.93;99390.56;4943300;28;52345;-69
2023/12/05 01:34:39;;;;;;;;;1.00;0.00;;;;;9.94;69.99;99388.03;4940430;28;45516;-69
2023/12/05 01:37:04;;;;;;;;;1.50;0.00;;;;;9.95;69.75;99399.31;4943777;28;63034;-69
2023/12/05 01:39:29;;;;;;;;;0.00;0.00;;;;;9.90;69.62;99396.94;4938947;28;75512;-69
2023/12/05 01:41:55;;;;;;;;;2.00;0.00;;;;;9.91;69.40;99400.38;4941335;28;67607;-69
2023/12/05 01:44:20;;;;;;;;;2.25;0.00;;;;;9.88;69.66;99404.00;4941749;28;45429;-69
2023/12/05 01:46:45;;;;;;;;;0.00;0.00;;;;;9.83;69.34;99401.56;4920888;28;74537;-69
2023/12/05 01:49:11;;;;;;;;;1.00;1.00;;;;;9.83;69.76;99405.97;4941008;28;46080;-69
2023/12/05 01:51:37;;;;;;;;;0.75;0.00;;;;;9.83;69.86;99404.19;4925703;28;45296;-69
2023/12/05 01:54:03;;;;;;;;;0.00;0.00;;;;;9.83;69.43;99400.75;4940555;28;45652;-69
2023/12/05 01:56:29;;;;;;;;;2.25;0.00;;;;;9.82;69.42;99412.09;4939758;28;45696;-69
2023/12/05 01:58:55;;;;;;;;;0.50;0.00;;;;;9.79;69.51;99409.63;4941123;28;75663;-69
2023/12/05 02:01:20;;;;;;;;;0.75;0.00;;;;;9.77;69.62;99414.91;4919308;28;73917;-69
2023/12/05 02:03:47;;;;;;;;;1.25;0.00;;;;;9.77;69.33;99414.06;4940565;28;60997;-69
2023/12/05 02:06:13;;;;;;;;;0.00;0.00;;;;;9.77;68.93;99414.06;4935985;28;45600;-69
2023/12/05 02:08:39;;;;;;;;;2.00;0.00;;;;;9.74;68.94;99412.44;4924296;28;67311;-68
2023/12/05 02:11:05;;;;;;;;;0.00;0.00;;;;;9.74;68.71;99422.91;4942613;28;45366;-68
2023/12/05 02:13:30;;;;;;;;;0.00;0.00;;;;;9.69;68.87;99424.88;4943569;28;45464;-69
2023/12/05 02:16:20;;;;;;;;;2.75;0.00;;;;;9.67;68.74;99434.53;4939731;28;57435;-68
2023/12/05 02:18:53;;;;;;;;;0.00;0.00;;;;;9.64;68.61;99421.59;4940182;28;46022;-68
2023/12/05 02:21:21;;;;;;;;;0.00;0.00;;;;;9.67;68.54;99430.16;4938806;28;45458;-68
2023/12/05 02:23:55;;;;;;;;;0.00;0.00;;;;;9.69;68.52;99430.09;4940579;28;45501;-68
2023/12/05 02:26:46;;;;;;;;;0.00;0.00;;;;;9.68;68.89;99434.47;4956386;28;45424;-68
2023/12/05 02:29:12;;;;;;;;;2.25;0.00;;;;;9.68;68.83;99442.31;4942422;28;48197;-68
2023/12/05 02:31:37;;;;;;;;;0.00;0.00;;;;;9.68;69.37;99442.31;4939890;28;45279;-68
2023/12/05 02:34:03;;;;;;;;;0.00;0.00;;;;;9.69;69.17;99443.16;4956290;28;53930;-68
2023/12/05 02:36:37;;;;;;;;;0.00;0.00;;;;;9.66;69.29;99451.13;4943736;28;45805;-69
2023/12/05 02:39:21;;;;;;;;;2.00;0.00;;;;;9.65;69.38;99449.41;4938962;28;46795;-68
2023/12/05 02:41:52;;;;;;;;;0.00;0.00;;;;;9.66;70.01;99466.78;4955929;28;45443;-69
2023/12/05 02:44:18;;;;;;;;;0.00;0.00;;;;;9.64;70.65;99460.78;4939540;28;45416;-68
2023/12/05 02:46:44;;;;;;;;;0.00;0.00;;;;;9.61;69.98;99461.75;4945756;28;60848;-68
2023/12/05 02:49:10;;;;;;;;;0.50;0.00;;;;;9.54;69.88;99465.53;4939265;28;75670;-69
2023/12/05 02:51:35;;;;;;;;;0.00;0.00;;;;;9.48;70.02;99463.22;4923542;28;45894;-69
2023/12/05 02:54:03;;;;;;;;;0.75;0.00;;;;;9.45;70.54;99471.16;4939619;28;68288;-68
2023/12/05 02:56:29;;;;;;;;;0.00;0.00;;;;;9.38;70.46;99460.13;4940669;28;45517;-69
2023/12/05 02:58:54;;;;;;;;;0.25;0.00;;;;;9.32;70.49;99482.13;4954000;28;46331;-69
2023/12/05 03:01:20;;;;;;;;;0.00;0.00;;;;;9.26;70.54;99481.53;4935902;28;45499;-68
2023/12/05 03:03:45;;;;;;;;;0.50;0.00;;;;;9.22;71.02;99470.38;4940415;28;56600;-69
2023/12/05 03:06:10;;;;;;;;;0.00;0.00;;;;;9.17;71.66;99472.34;4947021;28;66665;-69
2023/12/05 03:08:36;;;;;;;;;1.00;0.00;;;;;9.17;71.85;99464.53;4939514;28;45390;-69
2023/12/05 03:11:01;;;;;;;;;0.00;0.00;;;;;9.13;71.82;99476.81;4935410;28;66810;-69
2023/12/05 03:13:27;;;;;;;;;0.00;0.00;;;;;9.08;72.83;99473.59;4940082;28;45232;-68
2023/12/05 03:15:52;;;;;;;;;0.00;0.00;;;;;9.02;72.30;99463.38;4942694;28;60194;-69
2023/12/05 03:18:17;;;;;;;;;0.00;0.00;;;;;8.99;71.95;99478.31;4950615;28;45465;-68
2023/12/05 03:20:43;;;;;;;;;0.00;0.00;;;;;8.96;73.18;99473.22;4956510;28;45417;-69
2023/12/05 03:23:08;;;;;;;;;0.00;0.00;;;;;8.88;72.98;99469.16;4938811;28;45230;-68
2023/12/05 03:25:34;;;;;;;;;0.00;0.00;;;;;8.82;73.09;99463.31;4940051;28;73168;-69
2023/12/05 03:27:59;;;;;;;;;0.00;0.00;;;;;8.76;72.93;99468.81;4955179;28;65671;-69
2023/12/05 03:30:24;;;;;;;;;0.00;0.00;;;;;8.67;73.09;99460.44;4937489;28;71432;-68
2023/12/05 03:32:50;;;;;;;;;0.00;0.00;;;;;8.63;73.12;99471.06;4939517;28;45361;-68
2023/12/05 03:35:15;;;;;;;;;0.00;0.00;;;;;8.58;73.72;99479.06;4955304;28;45780;-68
2023/12/05 03:37:40;;;;;;;;;0.00;0.00;;;;;8.51;73.68;99472.38;4940285;28;71181;-68
2023/12/05 03:40:06;;;;;;;;;0.00;0.00;;;;;8.49;73.55;99474.19;4939881;28;45537;-68
2023/12/05 03:42:31;;;;;;;;;0.75;0.00;;;;;8.50;73.66;99471.53;4940969;28;45413;-69
2023/12/05 03:44:57;;;;;;;;;0.00;0.00;;;;;8.47;74.35;99469.03;4920071;28;58410;-68
2023/12/05 03:47:22;;;;;;;;;0.25;0.00;;;;;8.46;74.05;99467.31;4937038;28;56878;-69
2023/12/05 03:49:47;;;;;;;;;0.00;0.00;;;;;8.42;74.16;99470.09;4939362;28;55474;-69
2023/12/05 03:52:13;;;;;;;;;0.00;0.00;;;;;8.39;78.89;99478.88;4938917;28;45271;-68
2023/12/05 03:54:38;;;;;;;;;0.00;0.00;;;;;8.36;75.35;99482.47;4938975;28;48599;-68
2023/12/05 03:57:03;;;;;;;;;0.00;0.00;;;;;8.32;74.76;99493.91;4938540;28;45586;-69
2023/12/05 03:59:29;;;;;;;;;0.00;0.00;;;;;8.28;74.67;99494.91;4941175;28;45402;-68
2023/12/05 04:01:54;;;;;;;;;0.00;0.00;;;;;8.28;74.91;99502.75;4935894;28;70255;-69
2023/12/05 04:04:19;;;;;;;;;0.25;0.00;;;;;8.30;74.87;99503.53;4940092;28;55828;-68
2023/12/05 04:06:45;;;;;;;;;0.00;0.00;;;;;8.28;75.18;99510.56;4937142;28;46792;-69
2023/12/05 04:09:10;;;;;;;;;0.00;0.00;;;;;8.29;75.33;99516.66;4939118;28;45333;-69
2023/12/05 04:11:36;;;;;;;;;1.00;0.00;;;;;8.29;75.18;99512.28;4942681;28;45323;-69
2023/12/05 04:14:01;;;;;;;;;0.00;0.00;;;;;8.30;75.16;99519.16;4929551;28;47119;-69
2023/12/05 04:16:27;;;;;;;;;0.00;0.00;;;;;8.35;75.50;99526.81;4945758;28;45418;-69
2023/12/05 04:18:52;;;;;;;;;0.00;0.00;;;;;8.38;75.74;99531.09;4944580;28;58380;-69
2023/12/05 04:21:18;;;;;;;;;0.00;0.00;;;;;8.39;75.47;99533.63;4942404;28;51189;-69
2023/12/05 04:23:44;;;;;;;;;0.00;0.00;;;;;8.40;75.78;99542.31;4941288;28;45528;-68
2023/12/05 04:26:16;;;;;;;;;0.00;0.00;;;;;8.44;75.93;99536.09;4942304;28;46413;-69
2023/12/05 04:28:41;;;;;;;;;1.00;0.00;;;;;8.45;76.03;99551.69;4941619;28;45409;-68
2023/12/05 04:31:07;;;;;;;;;0.00;0.00;;;;;8.46;76.01;99545.53;4957659;28;61306;-68
2023/12/05 04:33:32;;;;;;;;;0.00;0.00;;;;;8.48;76.10;99550.69;4941592;28;45321;-68
2023/12/05 04:35:57;;;;;;;;;0.00;0.00;;;;;8.51;76.19;99541.00;4941430;28;64562;-68
2023/12/05 04:38:23;;;;;;;;;0.00;0.00;;;;;8.53;76.06;99554.88;4941476;28;72485;-68
2023/12/05 04:40:48;;;;;;;;;0.00;0.00;;;;;8.55;75.95;99553.03;4943431;28;69343;-68
2023/12/05 04:43:13;;;;;;;;;0.00;0.00;;;;;8.56;75.73;99561.72;4945214;28;70615;-68
2023/12/05 04:45:40;;;;;;;;;1.25;0.00;;;;;8.53;75.95;99554.88;4942164;28;75482;-68
2023/12/05 04:48:05;;;;;;;;;0.00;0.00;;;;;8.54;76.07;99543.50;4942386;28;45710;-68
2023/12/05 04:50:30;;;;;;;;;0.00;0.00;;;;;8.57;75.94;99563.41;4956990;28;69174;-69
2023/12/05 04:52:56;;;;;;;;;2.00;0.00;;;;;8.59;76.03;99571.16;4937711;28;45493;-68
2023/12/05 04:55:21;;;;;;;;;0.00;0.00;;;;;8.57;76.43;99570.38;4953868;28;76106;-68
2023/12/05 04:57:46;;;;;;;;;3.75;0.00;;;;;8.59;76.43;99568.56;4942721;28;67263;-68
2023/12/05 05:00:13;;;;;;;;;0.00;0.00;;;;;8.61;76.47;99574.59;4942015;28;69255;-68
2023/12/05 05:02:38;;;;;;;;;0.00;0.00;;;;;8.63;76.48;99576.22;4923901;28;45451;-68
2023/12/05 05:05:04;;;;;;;;;0.00;0.00;;;;;8.65;76.49;99579.59;4938171;28;70976;-69
2023/12/05 05:07:30;;;;;;;;;1.00;0.00;;;;;8.64;76.30;99579.66;4941222;28;45496;-69
2023/12/05 05:09:55;;;;;;;;;0.00;0.00;;;;;8.69;76.18;99588.16;4943027;28;50281;-68
2023/12/05 05:12:21;;;;;;;;;1.00;0.50;;;;;8.68;76.16;99583.88;4941754;28;45468;-68
2023/12/05 05:14:46;;;;;;;;;0.50;0.00;;;;;8.69;76.48;99589.03;4942320;28;75554;-68
2023/12/05 05:17:11;;;;;;;;;0.00;0.00;;;;;8.66;76.25;99598.75;4943735;28;45271;-68
2023/12/05 05:19:37;;;;;;;;;0.00;0.00;;;;;8.67;76.07;99603.03;4944080;28;45319;-68
2023/12/05 05:22:02;;;;;;;;;0.00;0.00;;;;;8.67;76.35;99605.63;4941169;28;59017;-68
2023/12/05 05:24:28;;;;;;;;;0.00;0.00;;;;;8.68;76.13;99612.56;4942517;28;45570;-68
2023/12/05 05:26:53;;;;;;;;;0.00;0.00;;;;;8.69;76.21;99599.47;4960647;28;45505;-68
2023/12/05 05:29:19;;;;;;;;;0.50;0.00;;;;;8.72;76.10;99619.34;4940098;28;45322;-68
2023/12/05 05:31:44;;;;;;;;;1.00;0.00;;;;;8.72;76.08;99606.31;4943307;28;46380;-68
2023/12/05 05:34:09;;;;;;;;;0.50;0.00;;;;;8.74;76.01;99620.16;4941827;28;75525;-68
2023/12/05 05:36:35;;;;;;;;;0.50;0.00;;;;;8.77;76.10;99627.88;4929875;28;60659;-68
2023/12/05 05:39:00;;;;;;;;;0.00;0.00;;;;;8.76;76.21;99631.38;4944378;28;65969;-68
2023/12/05 05:41:26;;;;;;;;;1.00;0.00;;;;;8.77;76.29;99638.31;4941623;28;45377;-68
2023/12/05 05:43:51;;;;;;;;;3.25;0.00;;;;;8.77;76.24;99638.31;4942914;28;45474;-68
2023/12/05 05:46:17;;;;;;;;;0.00;0.00;;;;;8.77;75.89;99642.69;4924026;28;72526;-68
2023/12/05 05:48:42;;;;;;;;;0.25;0.00;;;;;8.78;76.07;99645.19;4936352;28;69430;-67
2023/12/05 05:51:08;;;;;;;;;0.00;0.00;;;;;8.77;76.22;99651.34;4943783;28;45305;-67
2023/12/05 05:53:34;;;;;;;;;1.00;0.00;;;;;8.76;76.06;99657.44;4941269;28;45728;-67
2023/12/05 05:56:00;;;;;;;;;1.50;0.25;;;;;8.73;76.13;99644.56;4942316;28;45593;-67
2023/12/05 05:58:26;;;;;;;;;0.00;0.00;;;;;8.78;76.19;99666.06;4943344;28;45220;-68
2023/12/05 06:00:52;;;;;;;;;0.00;0.00;;;;;8.78;75.88;99662.63;4941092;28;45407;-68
2023/12/05 06:03:17;;;;;;;;;1.00;0.00;;;;;8.77;76.11;99672.22;4939318;28;74305;-68
2023/12/05 06:05:42;;;;;;;;;0.00;0.00;;;;;8.77;75.84;99668.75;4940454;28;70670;-68
2023/12/05 06:08:08;;;;;;;;;0.00;0.00;;;;;8.73;76.11;99670.63;4941060;28;68291;-68
2023/12/05 06:10:35;;;;;;;;;0.00;0.00;;;;;8.75;76.11;99679.25;4941628;28;45497;-68
2023/12/05 06:13:00;;;;;;;;;0.00;0.00;;;;;8.79;76.16;99691.25;4941335;28;46892;-68
2023/12/05 06:15:26;;;;;;;;;0.00;0.00;;;;;8.78;76.00;99688.69;4942610;28;45324;-68
2023/12/05 06:17:51;;;;;;;;;1.50;0.00;;;;;8.79;76.00;99687.81;4945299;28;45295;-68
2023/12/05 06:20:17;;;;;;;;;0.00;0.00;;;;;8.75;75.93;99694.91;4942162;28;65434;-67
2023/12/05 06:22:42;;;;;;;;;0.25;0.25;;;;;8.78;75.99;99697.38;4948639;28;45310;-68
2023/12/05 06:25:08;;;;;;;;;0.50;0.50;;;;;8.80;75.74;99700.81;4942972;28;45342;-68
2023/12/05 06:27:33;;;;;;;;;1.00;0.25;;;;;8.82;75.99;99701.59;4950947;28;45447;-68
2023/12/05 06:29:58;;;;;;;;;1.00;0.00;;;;;8.84;75.78;99702.38;4939275;28;45421;-68
2023/12/05 06:32:23;;;;;;;;;0.00;0.00;;;;;8.83;75.58;99705.88;4965369;28;66408;-68
2023/12/05 06:34:50;;;;;;;;;1.00;0.50;;;;;8.82;75.37;99717.25;4940572;28;61711;-68
2023/12/05 06:37:16;;;;;;;;;1.75;1.00;;;;;8.83;75.48;99718.94;4940152;28;69072;-68
2023/12/05 06:39:42;;;;;;;;;1.00;1.00;;;;;8.85;75.87;99734.53;4939931;28;47047;-70
2023/12/05 06:42:07;;;;;;;;;3.00;0.00;;;;;8.84;75.36;99731.09;4943716;28;75381;-72
2023/12/05 06:44:32;;;;;;;;;0.50;0.50;;;;;8.85;75.38;99734.53;4942104;28;63263;-68
2023/12/05 06:46:57;;;;;;;;;0.00;0.00;;;;;8.82;75.15;99738.13;4941935;28;63543;-69
2023/12/05 06:49:23;;;;;;;;;2.00;0.25;;;;;8.82;75.42;99737.25;4946628;28;72439;-66
2023/12/05 06:51:55;;;;;;;;;0.00;0.00;;;;;8.84;75.20;99744.13;4957391;28;45358;-72
2023/12/05 06:54:21;;;;;;;;;0.25;0.25;;;;;8.86;75.29;99744.06;4945314;28;45401;-72
2023/12/05 06:56:47;;;;;;;;;0.00;0.00;;;;;8.88;75.08;99750.09;4959380;28;45329;-72
2023/12/05 06:59:13;;;;;;;;;0.50;0.50;;;;;8.89;74.88;99759.63;4947359;28;74092;-71
2023/12/05 07:01:39;;;;;;;;;1.25;1.00;;;;;8.91;75.15;99758.66;4940063;28;47336;-69
2023/12/05 07:04:04;;;;;;;;;11.50;6.75;;;;;8.93;75.18;99766.44;4947580;28;45395;-69
2023/12/05 07:06:30;;;;;;;;;23.25;18.50;;;;;8.92;74.99;99765.59;4944338;28;67999;-73
2023/12/05 07:08:56;;;;;;;;;1.50;0.00;;;;;8.93;74.79;99774.25;4943581;28;46054;-73
2023/12/05 07:11:21;;;;;;;;;0.50;0.25;;;;;8.91;74.71;99774.31;4939495;28;71922;-63
2023/12/05 07:13:48;;;;;;;;;0.50;0.50;;;;;8.91;74.59;99776.91;4943217;28;59279;-64
2023/12/05 07:16:13;;;;;;;;;1.00;1.00;;;;;8.88;74.49;99787.44;4950446;28;45227;-66
2023/12/05 07:18:38;;;;;;;;;1.50;1.00;;;;;8.87;74.54;99784.88;4953261;28;47338;-64
2023/12/05 07:21:04;;;;;;;;;1.00;1.00;;;;;8.87;74.57;99791.00;4941342;28;45397;-67
2023/12/05 07:23:30;;;;;;;;;1.00;1.00;;;;;8.86;74.63;99796.25;4940693;28;45371;-65
2023/12/05 07:25:56;;;;;;;;;0.00;0.00;;;;;8.85;74.37;99805.84;4941486;28;45272;-66
2023/12/05 07:28:22;;;;;;;;;0.75;0.75;;;;;8.83;74.60;99802.41;4939519;28;45514;-68
2023/12/05 07:30:47;;;;;;;;;1.00;1.00;;;;;8.84;74.69;99805.91;4940185;28;46084;-69
2023/12/05 07:33:12;;;;;;;;;1.00;1.00;;;;;8.85;74.80;99813.66;4941453;28;64044;-68
2023/12/05 07:35:38;;;;;;;;;1.75;0.75;;;;;8.85;74.48;99820.63;4954140;28;71594;-76
2023/12/05 07:38:03;;;;;;;;;0.00;0.00;;;;;8.84;74.61;99824.16;4937690;28;72111;-64
2023/12/05 07:40:29;;;;;;;;;2.50;1.00;;;;;8.85;74.61;99826.72;4939397;28;71554;-72
2023/12/05 07:42:54;;;;;;;;;1.50;0.25;;;;;8.87;74.17;99840.56;4938011;28;45303;-65
2023/12/05 07:45:19;;;;;;;;;2.75;0.00;;;;;8.90;74.54;99834.38;4936495;28;57451;-64
2023/12/05 07:47:48;;;;;;;;;1.50;1.25;;;;;8.92;74.19;99836.03;4939316;28;72904;-65
2023/12/05 07:50:16;;;;;;;;;2.00;0.25;;;;;8.93;74.16;99844.72;4940436;28;51682;-67
2023/12/05 07:52:42;;;;;;;;;1.00;1.00;;;;;8.96;74.14;99842.00;4957075;28;46040;-62
2023/12/05 07:55:08;;;;;;;;;1.00;1.00;;;;;8.96;74.24;99851.56;4939138;28;45255;-65
2023/12/05 07:57:33;;;;;;;;;3.00;2.00;;;;;8.95;74.44;99857.72;4939139;28;45581;-63
2023/12/05 07:59:59;;;;;;;;;2.75;2.00;;;;;8.95;74.37;99857.72;4940119;28;45598;-64
2023/12/05 08:02:25;;;;;;;;;1.50;1.50;;;;;8.92;74.21;99856.91;4940298;28;45394;-64
2023/12/05 08:04:50;;;;;;;;;2.50;2.00;;;;;8.95;74.05;99870.75;4941780;28;55674;-67
2023/12/05 08:07:15;;;;;;;;;3.00;2.25;;;;;8.93;73.62;99873.41;4958382;28;45568;-71
2023/12/05 08:09:41;;;;;;;;;0.00;0.00;;;;;8.92;74.11;99864.75;4946941;28;75439;-67
2023/12/05 08:12:06;;;;;;;;;3.75;1.00;;;;;8.92;73.91;99869.97;4944569;28;45396;-67
2023/12/05 08:14:32;;;;;;;;;3.50;1.00;;;;;8.94;74.29;99869.88;4951336;28;45343;-66
2023/12/05 08:16:57;;;;;;;;;2.50;1.00;;;;;8.95;74.05;99870.75;4945539;28;45366;-68
2023/12/05 08:19:22;;;;;;;;;1.25;1.00;;;;;8.95;73.90;99881.19;4942605;28;74622;-67
2023/12/05 08:21:48;;;;;;;;;2.00;2.00;;;;;8.97;74.16;99887.19;4956379;28;73140;-66
2023/12/05 08:24:13;;;;;;;;;2.00;1.00;;;;;9.01;74.16;99891.41;4949686;28;45465;-71
2023/12/05 08:26:38;;;;;;;;;2.00;2.00;;;;;9.02;74.09;99888.75;4940658;28;65044;-65
2023/12/05 08:29:04;;;;;;;;;3.00;1.50;;;;;9.02;73.77;99895.72;4921153;28;72943;-67
2023/12/05 08:31:29;;;;;;;;;1.75;1.75;;;;;9.01;73.62;99896.63;4939426;28;69868;-67
2023/12/05 08:33:54;;;;;;;;;2.50;1.75;;;;;9.00;73.68;99900.16;4940621;28;69054;-67
2023/12/05 08:36:19;;;;;;;;;3.00;1.50;;;;;9.02;73.89;99904.41;4943700;28;71389;-65
2023/12/05 08:38:45;;;;;;;;;2.50;2.00;;;;;9.05;73.63;99900.84;4932413;28;75450;-67
2023/12/05 08:41:20;;;;;;;;;8.25;4.25;;;;;9.07;73.29;99912.94;4944905;28;46668;-62
2023/12/05 08:43:46;;;;;;;;;2.00;2.00;;;;;9.06;73.27;99910.38;4929048;28;45474;-64
2023/12/05 08:46:12;;;;;;;;;3.00;2.00;;;;;9.11;73.09;99914.53;4937119;28;45404;-65
2023/12/05 08:48:37;;;;;;;;;1.25;1.00;;;;;9.14;73.19;99916.19;4920795;28;48396;-62
2023/12/05 08:51:02;;;;;;;;;3.00;2.75;;;;;9.18;73.04;99922.16;4938115;28;73123;-63
2023/12/05 08:53:28;;;;;;;;;4.00;2.00;;;;;9.23;72.75;99925.47;4937975;28;55399;-63
2023/12/05 08:55:53;;;;;;;;;2.00;1.00;;;;;9.21;72.40;99930.75;4940090;28;68278;-64
2023/12/05 08:58:18;;;;;;;;;3.25;2.00;;;;;9.22;72.34;99934.19;4940824;28;74198;-63
2023/12/05 09:00:44;;;;;;;;;1.25;1.00;;;;;9.22;72.26;99934.19;4943811;28;73137;-62
2023/12/05 09:03:09;;;;;;;;;3.00;1.00;;;;;9.17;72.25;99942.19;4947110;28;45725;-63
2023/12/05 09:05:35;;;;;;;;;2.00;2.00;;;;;9.15;72.59;99943.97;4943481;28;45441;-63
2023/12/05 09:08:01;;;;;;;;;2.25;1.50;;;;;9.18;72.59;99948.25;4943212;28;48306;-62
2023/12/05 09:10:26;;;;;;;;;3.00;1.25;;;;;9.19;72.63;99948.22;4938448;28;45770;-63
2023/12/05 09:12:52;;;;;;;;;1.00;1.00;;;;;9.23;72.41;99957.63;4942240;28;69193;-65
2023/12/05 09:15:17;;;;;;;;;1.00;1.00;;;;;9.23;72.15;99954.19;4943091;28;54650;-64
2023/12/05 09:17:42;;;;;;;;;2.25;2.00;;;;;9.23;72.16;99956.78;4949809;28;45470;-64
2023/12/05 09:20:09;;;;;;;;;1.00;1.00;;;;;9.20;72.33;99946.44;4944194;28;45362;-63
2023/12/05 09:22:34;;;;;;;;;1.25;1.00;;;;;9.21;72.54;99962.06;4945787;28;45310;-64
2023/12/05 09:25:00;;;;;;;;;1.00;1.00;;;;;9.25;72.14;99962.81;4941264;28;55644;-64
2023/12/05 09:27:25;;;;;;;;;5.00;1.75;;;;;9.28;72.40;99957.50;4942333;28;69255;-63
2023/12/05 09:29:50;;;;;;;;;2.00;1.00;;;;;9.31;72.06;99973.91;4940132;28;73230;-63
2023/12/05 09:32:16;;;;;;;;;2.00;0.75;;;;;9.31;71.98;99979.13;4944970;28;45330;-62
2023/12/05 09:34:42;;;;;;;;;3.75;1.50;;;;;9.36;72.17;99980.72;4940886;28;45298;-63
2023/12/05 09:37:07;;;;;;;;;1.75;1.75;;;;;9.35;71.92;99974.66;4940862;28;74227;-63
2023/12/05 09:39:32;;;;;;;;;0.25;0.25;;;;;9.41;71.98;99989.25;4939408;28;73254;-64
2023/12/05 09:42:03;;;;;;;;;3.50;1.00;;;;;9.39;72.05;99991.91;4943047;28;45228;-64
2023/12/05 09:44:29;;;;;;;;;1.50;1.50;;;;;9.42;72.02;99990.94;4943650;28;45319;-62
2023/12/05 09:46:58;;;;;;;;;2.75;1.00;;;;;9.44;72.94;99991.78;4957535;28;45342;-63
2023/12/05 09:49:27;;;;;;;;;1.00;1.00;;;;;9.41;71.88;100003.16;4938790;28;46116;-64
2023/12/05 09:51:53;;;;;;;;;4.25;1.75;;;;;9.43;71.76;100000.50;4942648;28;45740;-63
2023/12/05 09:54:19;;;;;;;;;2.00;1.00;;;;;9.43;71.64;100013.56;4942729;28;45422;-64
2023/12/05 09:56:44;;;;;;;;;2.00;2.00;;;;;9.42;71.92;100012.72;4940424;28;74895;-64
2023/12/05 09:59:10;;;;;;;;;3.25;2.00;;;;;9.46;72.16;100019.53;4940675;28;45459;-65
2023/12/05 10:01:36;;;;;;;;;2.50;2.00;;;;;9.52;71.85;100028.91;4942425;28;45507;-64
2023/12/05 10:04:01;;;;;;;;;1.25;1.00;;;;;9.57;71.52;100024.38;4941075;28;45611;-65
2023/12/05 10:06:28;;;;;;;;;2.00;1.00;;;;;9.57;71.45;100032.22;4943697;28;46209;-64
2023/12/05 10:08:55;;;;;;;;;3.50;2.00;;;;;9.61;71.43;100036.41;4945276;28;45542;-65
2023/12/05 10:11:24;;;;;;;;;2.25;1.00;;;;;9.58;70.94;100033.06;4944114;28;45469;-65
2023/12/05 10:13:50;;;;;;;;;2.00;0.75;;;;;9.59;70.87;100043.47;4941977;28;45618;-64
2023/12/05 10:16:16;;;;;;;;;2.00;2.00;;;;;9.60;71.26;100045.19;4940861;28;47774;-63
2023/12/05 10:18:43;;;;;;;;;2.25;2.25;;;;;9.63;71.13;100042.47;4924094;28;45470;-62
2023/12/05 10:21:08;;;;;;;;;1.25;1.00;;;;;9.66;70.93;100047.56;4924784;28;46440;-64
2023/12/05 10:23:35;;;;;;;;;3.00;3.00;;;;;9.69;71.20;100046.63;4946681;28;71296;-62
2023/12/05 10:26:00;;;;;;;;;4.75;2.00;;;;;9.71;71.23;100052.66;4940819;28;50476;-62
2023/12/05 10:28:25;;;;;;;;;4.25;2.00;;;;;9.71;70.88;100057.03;4941375;28;45456;-62
2023/12/05 10:30:51;;;;;;;;;3.75;2.75;;;;;9.71;70.87;100065.72;4942883;28;54598;-62
2023/12/05 10:33:17;;;;;;;;;2.00;2.00;;;;;9.72;71.04;100061.34;4942551;28;62684;-63
2023/12/05 10:35:44;;;;;;;;;2.00;2.00;;;;;9.71;70.88;100060.50;4942335;28;45427;-63
2023/12/05 10:38:12;;;;;;;;;1.00;1.00;;;;;9.69;71.00;100062.31;4939200;28;45254;-62
2023/12/05 10:40:55;;;;;;;;;4.00;3.00;;;;;9.66;70.65;100060.63;4941913;28;45377;-62
2023/12/05 10:43:21;;;;;;;;;3.75;2.00;;;;;9.65;70.73;100063.28;4956194;28;45523;-62
2023/12/05 10:45:47;;;;;;;;;3.75;1.00;;;;;9.62;70.47;100064.25;4942170;28;46552;-63
2023/12/05 10:48:14;;;;;;;;;2.00;2.00;;;;;9.62;70.42;100069.50;4941707;28;45316;-62
2023/12/05 10:50:39;;;;;;;;;8.00;2.25;;;;;9.65;70.69;100078.97;4940668;28;45560;-63
2023/12/05 10:53:06;;;;;;;;;8.25;2.00;;;;;9.67;70.36;100067.59;4941506;28;45494;-62
2023/12/05 10:55:31;;;;;;;;;3.50;2.00;;;;;9.66;70.40;100078.91;4939772;28;46088;-62
2023/12/05 10:57:57;;;;;;;;;2.00;1.50;;;;;9.68;69.95;100086.72;4940126;28;45344;-62
2023/12/05 11:00:22;;;;;;;;;2.25;1.75;;;;;9.67;69.90;100085.03;4951748;28;61550;-62
2023/12/05 11:02:48;;;;;;;;;6.00;1.75;;;;;9.67;69.53;100085.03;4944881;28;72166;-62
2023/12/05 11:05:14;;;;;;;;;2.00;2.00;;;;;9.65;69.96;100092.03;4948098;28;75657;-62
2023/12/05 11:07:40;;;;;;;;;3.00;2.00;;;;;9.64;69.88;100092.94;4947679;28;72598;-62
2023/12/05 11:10:06;;;;;;;;;2.00;2.00;;;;;9.61;70.03;100096.50;4951841;28;45536;-62
2023/12/05 11:12:32;;;;;;;;;3.00;2.00;;;;;9.64;69.81;100098.19;4938141;28;45889;-62
2023/12/05 11:14:58;;;;;;;;;4.00;2.25;;;;;9.68;69.93;100099.78;4951809;28;46075;-62
2023/12/05 11:17:28;;;;;;;;;3.50;2.50;;;;;9.69;69.87;100098.88;4944199;28;73400;-62
2023/12/05 11:20:23;;;;;;;;;8.75;6.00;;;;;9.71;70.03;100107.50;4944294;28;45179;-63
2023/12/05 11:23:24;;;;;;;;;11.00;5.00;;;;;9.75;69.88;100101.28;4940063;28;45454;-68
2023/12/05 11:25:55;;;;;;;;;9.50;6.00;;;;;9.77;70.21;100104.69;4934879;28;46288;-63
2023/12/05 11:28:58;;;;;;;;;5.00;5.00;;;;;9.82;70.14;100107.16;4939947;28;45416;-66
2023/12/05 11:31:36;;;;;;;;;9.00;6.00;;;;;9.83;70.43;100108.88;4941243;28;45283;-64
2023/12/05 11:34:16;;;;;;;;;6.75;4.75;;;;;9.82;70.34;100118.44;4937286;28;45399;-67
2023/12/05 11:36:52;;;;;;;;;8.00;5.00;;;;;9.82;70.43;100109.75;4936780;28;46619;-64